メインページ
METAR-TAF:

METAR-TAF

空港 :

静岡空港

静岡, 日本

緯度: 34-47-46N, 経度: 138-11-22E, 海抜: 132m

現時点の気象観測

当レポートは55分前の12:00(UTC)に作成
北/北西の風 3kt、西からの間で変化する
気温 17°C
湿度 82%
気圧 1010 hPa
視程10km以上
高度1500ftの雲はほとんどない
高度10000ftの雲は散在している
高度13000ftの千切れ雲あり

METAR: RJNS 161200Z 33003KT 280V010 9999 FEW015 SCT100 BKN130 17/14 Q1010

時間: 21:55 (12:55 UTC)

予報

当レポートは1時間45分前の11:10(UTC)に作成
予報は16日の 12時(UTC)から 17日の 18時(UTC)まで有効
西/北西の風 6kt
視程10km以上
高度2000ftの雲はほとんどない
高度8000ftの雲は散在している
16日の 22時(UTC)から 17日の 00時(UTC)まで徐々に
南/南東の風 6kt
17日の 09時(UTC)から 17日の 12時(UTC)まで徐々に
北/北東の風 5kt

TAF: RJNS 161110Z 1612/1718 30006KT 9999 FEW020 SCT080 BECMG 1622/1700 16006KT BECMG 1709/1712 02005KT

4,000以上の空港の気象観測と天気予報(METAR報とTAF報)

利用可能な観測所は地図上に黄色い丸と赤い丸で示す。

丸の上にカーソルを重ねると観測所名を参照できる。

次にクリックすると気象観測と天気予報を参照できる。

マップの切り替え:黒色「×」印の緑ボタンをクリックして拡大、「-」印の緑ボタンをクリックして縮小、緑色の三角印をクリックして隣りの地図に切り替え


METAR-TAF: